Cave City, Arkansas
Current Conditions -  °F | °C
As of 6:55 PM on Wednesday 22 Oct 2014 (Local Time) from KBVX Reporting Station
Clear Clear  
Wind Chill: 59°   Ceiling: Unl
Heat Index: 59°   Visibility: 10mi
Dew Point: 43°   Wind: 3mph
Humidity: 55%   Direction: 80°E
Pressure: 30.18"   Gusts: NA
Location:  35.94°N, 91.55°W
Report Text: KBVX 222355Z AUTO 08003KT 10SM CLR 15/06 A3018 RMK AO1 10210 20150 402100070 57003
Loading
Personal Weather Stations






























Interactive Weather Map
Tropical Storm Tracking
New forecast layout! Learn more

10-Day Weather Forecast

Advertisements
Track Severe Weather on mobile